sensor_id;sensor_type;location;lat;lon;timestamp;P1;durP1;ratioP1;P2;durP2;ratioP2
2039;SDS011;1025;42.686;23.350;2022-12-10T00:00:04;4.83;;;4.43;;
2039;SDS011;1025;42.686;23.350;2022-12-10T00:02:31;5.53;;;4.90;;
2039;SDS011;1025;42.686;23.350;2022-12-10T00:04:57;8.53;;;5.57;;
2039;SDS011;1025;42.686;23.350;2022-12-10T00:07:24;5.10;;;4.80;;
2039;SDS011;1025;42.686;23.350;2022-12-10T00:09:50;5.70;;;5.20;;
2039;SDS011;1025;42.686;23.350;2022-12-10T00:12:18;15.77;;;5.93;;
2039;SDS011;1025;42.686;23.350;2022-12-10T00:14:45;4.27;;;3.97;;
2039;SDS011;1025;42.686;23.350;2022-12-10T00:17:11;4.27;;;4.07;;
2039;SDS011;1025;42.686;23.350;2022-12-10T00:19:38;4.90;;;4.53;;
2039;SDS011;1025;42.686;23.350;2022-12-10T00:22:04;7.60;;;4.13;;
2039;SDS011;1025;42.686;23.350;2022-12-10T00:24:31;6.20;;;5.60;;
2039;SDS011;1025;42.686;23.350;2022-12-10T00:26:57;4.60;;;4.20;;
2039;SDS011;1025;42.686;23.350;2022-12-10T00:29:25;4.80;;;4.37;;
2039;SDS011;1025;42.686;23.350;2022-12-10T00:31:52;6.83;;;6.17;;
2039;SDS011;1025;42.686;23.350;2022-12-10T00:34:18;4.20;;;3.80;;
2039;SDS011;1025;42.686;23.350;2022-12-10T00:36:45;5.13;;;4.73;;
2039;SDS011;1025;42.686;23.350;2022-12-10T00:39:13;5.83;;;5.30;;
2039;SDS011;1025;42.686;23.350;2022-12-10T00:41:40;6.30;;;5.70;;
2039;SDS011;1025;42.686;23.350;2022-12-10T00:44:07;5.67;;;4.10;;
2039;SDS011;1025;42.686;23.350;2022-12-10T00:46:35;5.53;;;4.30;;
2039;SDS011;1025;42.686;23.350;2022-12-10T00:49:02;4.50;;;4.20;;
2039;SDS011;1025;42.686;23.350;2022-12-10T00:51:29;12.50;;;4.30;;
2039;SDS011;1025;42.686;23.350;2022-12-10T00:53:56;3.70;;;3.40;;
2039;SDS011;1025;42.686;23.350;2022-12-10T00:56:24;6.10;;;3.27;;
2039;SDS011;1025;42.686;23.350;2022-12-10T00:58:50;4.40;;;4.07;;
2039;SDS011;1025;42.686;23.350;2022-12-10T01:01:18;3.80;;;3.50;;
2039;SDS011;1025;42.686;23.350;2022-12-10T01:03:47;8.33;;;4.10;;
2039;SDS011;1025;42.686;23.350;2022-12-10T01:06:14;5.67;;;5.07;;
2039;SDS011;1025;42.686;23.350;2022-12-10T01:08:41;5.20;;;4.40;;
2039;SDS011;1025;42.686;23.350;2022-12-10T01:11:08;4.13;;;3.80;;
2039;SDS011;1025;42.686;23.350;2022-12-10T01:13:35;3.77;;;3.53;;
2039;SDS011;1025;42.686;23.350;2022-12-10T01:16:02;3.77;;;3.57;;
2039;SDS011;1025;42.686;23.350;2022-12-10T01:18:28;4.13;;;3.73;;
2039;SDS011;1025;42.686;23.350;2022-12-10T01:20:57;6.80;;;4.00;;
2039;SDS011;1025;42.686;23.350;2022-12-10T01:23:26;4.17;;;3.80;;
2039;SDS011;1025;42.686;23.350;2022-12-10T01:25:53;3.70;;;3.50;;
2039;SDS011;1025;42.686;23.350;2022-12-10T01:28:19;4.90;;;4.50;;
2039;SDS011;1025;42.686;23.350;2022-12-10T01:30:46;4.90;;;4.50;;
2039;SDS011;1025;42.686;23.350;2022-12-10T01:33:13;6.00;;;3.30;;
2039;SDS011;1025;42.686;23.350;2022-12-10T01:35:40;3.33;;;3.13;;
2039;SDS011;1025;42.686;23.350;2022-12-10T01:38:08;4.17;;;3.97;;
2039;SDS011;1025;42.686;23.350;2022-12-10T01:40:36;3.20;;;3.07;;
2039;SDS011;1025;42.686;23.350;2022-12-10T01:43:03;3.90;;;3.60;;
2039;SDS011;1025;42.686;23.350;2022-12-10T01:45:29;3.90;;;3.60;;
2039;SDS011;1025;42.686;23.350;2022-12-10T01:47:56;4.13;;;3.83;;
2039;SDS011;1025;42.686;23.350;2022-12-10T01:50:22;4.23;;;3.93;;
2039;SDS011;1025;42.686;23.350;2022-12-10T01:52:49;4.43;;;3.80;;
2039;SDS011;1025;42.686;23.350;2022-12-10T01:55:38;3.77;;;3.53;;
2039;SDS011;1025;42.686;23.350;2022-12-10T01:58:05;4.10;;;3.80;;
2039;SDS011;1025;42.686;23.350;2022-12-10T02:00:31;3.67;;;3.40;;
2039;SDS011;1025;42.686;23.350;2022-12-10T02:02:59;3.73;;;3.43;;
2039;SDS011;1025;42.686;23.350;2022-12-10T02:05:28;4.33;;;3.60;;
2039;SDS011;1025;42.686;23.350;2022-12-10T02:07:59;8.37;;;4.10;;
2039;SDS011;1025;42.686;23.350;2022-12-10T02:10:32;6.93;;;4.07;;
2039;SDS011;1025;42.686;23.350;2022-12-10T02:13:03;3.93;;;3.40;;
2039;SDS011;1025;42.686;23.350;2022-12-10T02:15:31;3.70;;;3.40;;
2039;SDS011;1025;42.686;23.350;2022-12-10T02:18:00;6.93;;;6.50;;
2039;SDS011;1025;42.686;23.350;2022-12-10T02:20:30;4.60;;;4.20;;
2039;SDS011;1025;42.686;23.350;2022-12-10T02:22:59;4.00;;;3.50;;
2039;SDS011;1025;42.686;23.350;2022-12-10T02:25:29;3.37;;;3.17;;
2039;SDS011;1025;42.686;23.350;2022-12-10T02:27:59;3.83;;;3.53;;
2039;SDS011;1025;42.686;23.350;2022-12-10T02:30:29;2.70;;;2.60;;
2039;SDS011;1025;42.686;23.350;2022-12-10T02:32:56;4.83;;;4.37;;
2039;SDS011;1025;42.686;23.350;2022-12-10T02:35:24;4.07;;;3.73;;
2039;SDS011;1025;42.686;23.350;2022-12-10T02:37:52;3.87;;;3.60;;
2039;SDS011;1025;42.686;23.350;2022-12-10T02:40:22;3.97;;;3.77;;
2039;SDS011;1025;42.686;23.350;2022-12-10T02:42:50;3.47;;;3.23;;
2039;SDS011;1025;42.686;23.350;2022-12-10T02:45:17;3.80;;;3.50;;
2039;SDS011;1025;42.686;23.350;2022-12-10T02:47:45;3.93;;;3.47;;
2039;SDS011;1025;42.686;23.350;2022-12-10T02:50:12;3.17;;;3.00;;
2039;SDS011;1025;42.686;23.350;2022-12-10T02:52:40;3.87;;;3.57;;
2039;SDS011;1025;42.686;23.350;2022-12-10T02:55:08;3.60;;;3.40;;
2039;SDS011;1025;42.686;23.350;2022-12-10T02:57:36;4.90;;;4.50;;
2039;SDS011;1025;42.686;23.350;2022-12-10T03:00:08;4.27;;;3.97;;
2039;SDS011;1025;42.686;23.350;2022-12-10T03:02:43;4.57;;;4.20;;
2039;SDS011;1025;42.686;23.350;2022-12-10T03:05:17;3.80;;;3.50;;
2039;SDS011;1025;42.686;23.350;2022-12-10T03:07:46;4.23;;;3.93;;
2039;SDS011;1025;42.686;23.350;2022-12-10T03:10:14;3.93;;;3.67;;
2039;SDS011;1025;42.686;23.350;2022-12-10T03:12:44;4.20;;;3.90;;
2039;SDS011;1025;42.686;23.350;2022-12-10T03:15:13;4.33;;;4.03;;
2039;SDS011;1025;42.686;23.350;2022-12-10T03:17:40;3.53;;;3.33;;
2039;SDS011;1025;42.686;23.350;2022-12-10T03:20:08;4.00;;;3.73;;
2039;SDS011;1025;42.686;23.350;2022-12-10T03:22:38;3.73;;;3.43;;
2039;SDS011;1025;42.686;23.350;2022-12-10T03:25:06;4.07;;;3.73;;
2039;SDS011;1025;42.686;23.350;2022-12-10T03:27:32;4.13;;;3.80;;
2039;SDS011;1025;42.686;23.350;2022-12-10T03:29:59;3.60;;;3.40;;
2039;SDS011;1025;42.686;23.350;2022-12-10T03:32:27;4.73;;;4.33;;
2039;SDS011;1025;42.686;23.350;2022-12-10T03:34:55;4.57;;;4.17;;
2039;SDS011;1025;42.686;23.350;2022-12-10T03:37:22;3.73;;;3.50;;
2039;SDS011;1025;42.686;23.350;2022-12-10T03:39:50;3.37;;;3.13;;
2039;SDS011;1025;42.686;23.350;2022-12-10T03:42:17;3.40;;;3.20;;
2039;SDS011;1025;42.686;23.350;2022-12-10T03:44:44;3.77;;;3.27;;
2039;SDS011;1025;42.686;23.350;2022-12-10T03:47:11;3.70;;;3.40;;
2039;SDS011;1025;42.686;23.350;2022-12-10T03:49:38;3.30;;;3.10;;
2039;SDS011;1025;42.686;23.350;2022-12-10T03:52:05;4.47;;;4.03;;
2039;SDS011;1025;42.686;23.350;2022-12-10T03:54:31;3.00;;;2.80;;
2039;SDS011;1025;42.686;23.350;2022-12-10T03:56:59;3.87;;;3.57;;
2039;SDS011;1025;42.686;23.350;2022-12-10T03:59:26;4.50;;;4.10;;
2039;SDS011;1025;42.686;23.350;2022-12-10T04:01:52;3.37;;;3.03;;
2039;SDS011;1025;42.686;23.350;2022-12-10T04:04:19;3.57;;;3.07;;
2039;SDS011;1025;42.686;23.350;2022-12-10T04:06:45;2.93;;;2.63;;
2039;SDS011;1025;42.686;23.350;2022-12-10T04:09:13;3.93;;;3.73;;
2039;SDS011;1025;42.686;23.350;2022-12-10T04:11:39;3.80;;;3.63;;
2039;SDS011;1025;42.686;23.350;2022-12-10T04:14:09;3.23;;;3.00;;
2039;SDS011;1025;42.686;23.350;2022-12-10T04:16:53;3.03;;;2.93;;
2039;SDS011;1025;42.686;23.350;2022-12-10T04:19:19;3.53;;;3.23;;
2039;SDS011;1025;42.686;23.350;2022-12-10T04:21:46;5.20;;;4.70;;
2039;SDS011;1025;42.686;23.350;2022-12-10T04:24:31;4.67;;;4.33;;
2039;SDS011;1025;42.686;23.350;2022-12-10T04:27:16;4.77;;;4.47;;
2039;SDS011;1025;42.686;23.350;2022-12-10T04:29:45;6.13;;;3.57;;
2039;SDS011;1025;42.686;23.350;2022-12-10T04:32:11;4.23;;;3.90;;
2039;SDS011;1025;42.686;23.350;2022-12-10T04:34:38;4.97;;;4.47;;
2039;SDS011;1025;42.686;23.350;2022-12-10T04:37:05;4.53;;;4.03;;
2039;SDS011;1025;42.686;23.350;2022-12-10T04:39:31;4.50;;;4.20;;
2039;SDS011;1025;42.686;23.350;2022-12-10T04:41:58;4.60;;;4.27;;
2039;SDS011;1025;42.686;23.350;2022-12-10T04:44:25;3.90;;;3.70;;
2039;SDS011;1025;42.686;23.350;2022-12-10T04:46:53;4.63;;;4.40;;
2039;SDS011;1025;42.686;23.350;2022-12-10T04:49:20;4.20;;;3.90;;
2039;SDS011;1025;42.686;23.350;2022-12-10T04:51:47;3.10;;;2.90;;
2039;SDS011;1025;42.686;23.350;2022-12-10T04:54:13;6.40;;;3.93;;
2039;SDS011;1025;42.686;23.350;2022-12-10T04:56:40;4.33;;;3.93;;
2039;SDS011;1025;42.686;23.350;2022-12-10T04:59:07;4.03;;;3.73;;
2039;SDS011;1025;42.686;23.350;2022-12-10T05:01:34;3.33;;;3.03;;
2039;SDS011;1025;42.686;23.350;2022-12-10T05:04:04;4.47;;;4.17;;
2039;SDS011;1025;42.686;23.350;2022-12-10T05:06:31;3.90;;;3.60;;
2039;SDS011;1025;42.686;23.350;2022-12-10T05:08:58;4.40;;;4.00;;
2039;SDS011;1025;42.686;23.350;2022-12-10T05:11:25;9.30;;;4.67;;
2039;SDS011;1025;42.686;23.350;2022-12-10T05:13:51;5.10;;;4.70;;
2039;SDS011;1025;42.686;23.350;2022-12-10T05:16:18;8.63;;;5.40;;
2039;SDS011;1025;42.686;23.350;2022-12-10T05:18:45;4.43;;;4.23;;
2039;SDS011;1025;42.686;23.350;2022-12-10T05:21:14;3.90;;;3.60;;
2039;SDS011;1025;42.686;23.350;2022-12-10T05:23:42;4.53;;;4.23;;
2039;SDS011;1025;42.686;23.350;2022-12-10T05:26:09;5.37;;;4.97;;
2039;SDS011;1025;42.686;23.350;2022-12-10T05:28:37;4.03;;;3.73;;
2039;SDS011;1025;42.686;23.350;2022-12-10T05:31:04;4.13;;;3.93;;
2039;SDS011;1025;42.686;23.350;2022-12-10T05:33:31;4.87;;;4.20;;
2039;SDS011;1025;42.686;23.350;2022-12-10T05:35:58;3.80;;;3.60;;
2039;SDS011;1025;42.686;23.350;2022-12-10T05:38:27;3.77;;;3.50;;
2039;SDS011;1025;42.686;23.350;2022-12-10T05:40:56;3.67;;;3.47;;
2039;SDS011;1025;42.686;23.350;2022-12-10T05:43:27;5.07;;;4.63;;
2039;SDS011;1025;42.686;23.350;2022-12-10T05:45:53;4.87;;;4.67;;
2039;SDS011;1025;42.686;23.350;2022-12-10T05:48:20;5.80;;;5.33;;
2039;SDS011;1025;42.686;23.350;2022-12-10T05:50:47;5.10;;;4.70;;
2039;SDS011;1025;42.686;23.350;2022-12-10T05:53:14;5.57;;;5.17;;
2039;SDS011;1025;42.686;23.350;2022-12-10T05:55:45;6.13;;;5.53;;
2039;SDS011;1025;42.686;23.350;2022-12-10T05:58:12;7.30;;;5.73;;
2039;SDS011;1025;42.686;23.350;2022-12-10T06:00:39;5.27;;;4.80;;
2039;SDS011;1025;42.686;23.350;2022-12-10T06:03:06;4.63;;;4.33;;
2039;SDS011;1025;42.686;23.350;2022-12-10T06:05:35;12.87;;;5.77;;
2039;SDS011;1025;42.686;23.350;2022-12-10T06:08:01;8.37;;;5.20;;
2039;SDS011;1025;42.686;23.350;2022-12-10T06:10:28;6.67;;;6.23;;
2039;SDS011;1025;42.686;23.350;2022-12-10T06:12:56;6.57;;;6.17;;
2039;SDS011;1025;42.686;23.350;2022-12-10T06:15:22;6.90;;;6.30;;
2039;SDS011;1025;42.686;23.350;2022-12-10T06:17:49;6.63;;;4.83;;
2039;SDS011;1025;42.686;23.350;2022-12-10T06:20:15;5.63;;;5.17;;
2039;SDS011;1025;42.686;23.350;2022-12-10T06:22:42;10.17;;;5.93;;
2039;SDS011;1025;42.686;23.350;2022-12-10T06:25:08;5.60;;;5.20;;
2039;SDS011;1025;42.686;23.350;2022-12-10T06:27:35;5.70;;;5.40;;
2039;SDS011;1025;42.686;23.350;2022-12-10T06:30:04;4.60;;;4.30;;
2039;SDS011;1025;42.686;23.350;2022-12-10T06:32:31;9.93;;;4.67;;
2039;SDS011;1025;42.686;23.350;2022-12-10T06:34:57;6.17;;;4.93;;
2039;SDS011;1025;42.686;23.350;2022-12-10T06:37:24;4.30;;;3.90;;
2039;SDS011;1025;42.686;23.350;2022-12-10T06:39:50;7.23;;;4.23;;
2039;SDS011;1025;42.686;23.350;2022-12-10T06:42:17;5.40;;;4.87;;
2039;SDS011;1025;42.686;23.350;2022-12-10T06:44:44;5.07;;;4.73;;
2039;SDS011;1025;42.686;23.350;2022-12-10T06:47:12;5.90;;;5.37;;
2039;SDS011;1025;42.686;23.350;2022-12-10T06:49:38;11.73;;;10.67;;
2039;SDS011;1025;42.686;23.350;2022-12-10T06:52:05;8.03;;;7.23;;
2039;SDS011;1025;42.686;23.350;2022-12-10T06:54:31;5.53;;;5.03;;
2039;SDS011;1025;42.686;23.350;2022-12-10T06:56:58;13.93;;;7.30;;
2039;SDS011;1025;42.686;23.350;2022-12-10T06:59:24;4.67;;;4.37;;
2039;SDS011;1025;42.686;23.350;2022-12-10T07:01:51;7.07;;;6.37;;
2039;SDS011;1025;42.686;23.350;2022-12-10T07:04:19;5.73;;;5.40;;
2039;SDS011;1025;42.686;23.350;2022-12-10T07:06:45;12.93;;;9.83;;
2039;SDS011;1025;42.686;23.350;2022-12-10T07:09:12;10.93;;;8.93;;
2039;SDS011;1025;42.686;23.350;2022-12-10T07:11:39;10.27;;;9.27;;
2039;SDS011;1025;42.686;23.350;2022-12-10T07:14:05;11.20;;;5.30;;
2039;SDS011;1025;42.686;23.350;2022-12-10T07:16:32;4.70;;;4.40;;
2039;SDS011;1025;42.686;23.350;2022-12-10T07:19:00;4.00;;;3.80;;
2039;SDS011;1025;42.686;23.350;2022-12-10T07:21:28;6.57;;;5.97;;
2039;SDS011;1025;42.686;23.350;2022-12-10T07:23:56;5.73;;;5.33;;
2039;SDS011;1025;42.686;23.350;2022-12-10T07:26:23;5.00;;;4.60;;
2039;SDS011;1025;42.686;23.350;2022-12-10T07:28:50;7.60;;;6.63;;
2039;SDS011;1025;42.686;23.350;2022-12-10T07:31:16;9.80;;;5.87;;
2039;SDS011;1025;42.686;23.350;2022-12-10T07:33:43;5.80;;;5.50;;
2039;SDS011;1025;42.686;23.350;2022-12-10T07:36:10;7.67;;;7.07;;
2039;SDS011;1025;42.686;23.350;2022-12-10T07:38:38;6.70;;;6.20;;
2039;SDS011;1025;42.686;23.350;2022-12-10T07:41:05;9.80;;;5.67;;
2039;SDS011;1025;42.686;23.350;2022-12-10T07:43:33;5.67;;;5.17;;
2039;SDS011;1025;42.686;23.350;2022-12-10T07:46:04;6.47;;;5.67;;
2039;SDS011;1025;42.686;23.350;2022-12-10T07:48:31;6.07;;;5.67;;
2039;SDS011;1025;42.686;23.350;2022-12-10T07:50:57;7.90;;;7.27;;
2039;SDS011;1025;42.686;23.350;2022-12-10T07:53:24;7.73;;;6.20;;
2039;SDS011;1025;42.686;23.350;2022-12-10T07:55:52;7.00;;;6.47;;
2039;SDS011;1025;42.686;23.350;2022-12-10T07:58:18;7.60;;;6.87;;
2039;SDS011;1025;42.686;23.350;2022-12-10T08:00:45;6.97;;;5.10;;
2039;SDS011;1025;42.686;23.350;2022-12-10T08:03:11;7.37;;;6.63;;
2039;SDS011;1025;42.686;23.350;2022-12-10T08:05:38;11.10;;;5.97;;
2039;SDS011;1025;42.686;23.350;2022-12-10T08:08:04;7.10;;;6.50;;
2039;SDS011;1025;42.686;23.350;2022-12-10T08:10:32;7.47;;;6.87;;
2039;SDS011;1025;42.686;23.350;2022-12-10T08:13:00;9.47;;;7.13;;
2039;SDS011;1025;42.686;23.350;2022-12-10T08:15:27;6.70;;;6.20;;
2039;SDS011;1025;42.686;23.350;2022-12-10T08:17:54;5.90;;;5.50;;
2039;SDS011;1025;42.686;23.350;2022-12-10T08:20:21;6.20;;;5.60;;
2039;SDS011;1025;42.686;23.350;2022-12-10T08:22:47;6.23;;;5.83;;
2039;SDS011;1025;42.686;23.350;2022-12-10T08:25:14;7.27;;;6.87;;
2039;SDS011;1025;42.686;23.350;2022-12-10T08:27:40;4.73;;;4.40;;
2039;SDS011;1025;42.686;23.350;2022-12-10T08:30:09;6.40;;;5.93;;
2039;SDS011;1025;42.686;23.350;2022-12-10T08:32:36;7.73;;;6.90;;
2039;SDS011;1025;42.686;23.350;2022-12-10T08:35:03;14.33;;;7.13;;
2039;SDS011;1025;42.686;23.350;2022-12-10T08:37:30;6.30;;;5.90;;
2039;SDS011;1025;42.686;23.350;2022-12-10T08:39:59;7.03;;;6.43;;
2039;SDS011;1025;42.686;23.350;2022-12-10T08:42:27;7.63;;;7.00;;
2039;SDS011;1025;42.686;23.350;2022-12-10T08:44:54;8.10;;;7.60;;
2039;SDS011;1025;42.686;23.350;2022-12-10T08:47:22;9.47;;;8.33;;
2039;SDS011;1025;42.686;23.350;2022-12-10T08:49:49;8.07;;;7.57;;
2039;SDS011;1025;42.686;23.350;2022-12-10T08:52:15;8.30;;;7.73;;
2039;SDS011;1025;42.686;23.350;2022-12-10T08:54:42;9.60;;;8.70;;
2039;SDS011;1025;42.686;23.350;2022-12-10T08:57:08;7.60;;;7.10;;
2039;SDS011;1025;42.686;23.350;2022-12-10T08:59:35;7.50;;;7.00;;
2039;SDS011;1025;42.686;23.350;2022-12-10T09:02:01;8.60;;;8.10;;
2039;SDS011;1025;42.686;23.350;2022-12-10T09:04:29;9.07;;;8.10;;
2039;SDS011;1025;42.686;23.350;2022-12-10T09:06:56;9.30;;;8.47;;
2039;SDS011;1025;42.686;23.350;2022-12-10T09:09:22;7.03;;;6.63;;
2039;SDS011;1025;42.686;23.350;2022-12-10T09:11:49;8.67;;;7.80;;
2039;SDS011;1025;42.686;23.350;2022-12-10T09:14:15;7.33;;;6.73;;
2039;SDS011;1025;42.686;23.350;2022-12-10T09:16:42;7.47;;;6.97;;
2039;SDS011;1025;42.686;23.350;2022-12-10T09:19:08;7.87;;;7.27;;
2039;SDS011;1025;42.686;23.350;2022-12-10T09:21:36;11.70;;;7.13;;
2039;SDS011;1025;42.686;23.350;2022-12-10T09:24:03;6.10;;;5.70;;
2039;SDS011;1025;42.686;23.350;2022-12-10T09:26:30;7.63;;;7.10;;
2039;SDS011;1025;42.686;23.350;2022-12-10T09:28:56;6.13;;;5.63;;
2039;SDS011;1025;42.686;23.350;2022-12-10T09:31:24;6.33;;;5.93;;
2039;SDS011;1025;42.686;23.350;2022-12-10T09:33:52;7.03;;;6.53;;
2039;SDS011;1025;42.686;23.350;2022-12-10T09:36:19;8.93;;;8.13;;
2039;SDS011;1025;42.686;23.350;2022-12-10T09:38:47;6.67;;;6.17;;
2039;SDS011;1025;42.686;23.350;2022-12-10T09:41:29;6.73;;;6.13;;
2039;SDS011;1025;42.686;23.350;2022-12-10T09:43:59;7.57;;;6.60;;
2039;SDS011;1025;42.686;23.350;2022-12-10T09:46:31;6.80;;;6.30;;
2039;SDS011;1025;42.686;23.350;2022-12-10T09:49:09;5.70;;;5.30;;
2039;SDS011;1025;42.686;23.350;2022-12-10T09:51:38;6.03;;;5.60;;
2039;SDS011;1025;42.686;23.350;2022-12-10T09:54:24;11.20;;;7.23;;
2039;SDS011;1025;42.686;23.350;2022-12-10T09:56:51;6.90;;;6.30;;
2039;SDS011;1025;42.686;23.350;2022-12-10T09:59:19;5.43;;;5.10;;
2039;SDS011;1025;42.686;23.350;2022-12-10T10:01:46;5.50;;;5.10;;
2039;SDS011;1025;42.686;23.350;2022-12-10T10:04:16;5.77;;;5.37;;
2039;SDS011;1025;42.686;23.350;2022-12-10T10:06:42;6.03;;;5.43;;
2039;SDS011;1025;42.686;23.350;2022-12-10T10:09:11;5.37;;;4.97;;
2039;SDS011;1025;42.686;23.350;2022-12-10T10:11:38;5.17;;;4.77;;
2039;SDS011;1025;42.686;23.350;2022-12-10T10:14:06;5.10;;;4.80;;
2039;SDS011;1025;42.686;23.350;2022-12-10T10:16:37;4.43;;;4.23;;
2039;SDS011;1025;42.686;23.350;2022-12-10T10:19:06;5.80;;;5.40;;
2039;SDS011;1025;42.686;23.350;2022-12-10T10:21:36;6.37;;;5.87;;
2039;SDS011;1025;42.686;23.350;2022-12-10T10:24:04;9.53;;;6.03;;
2039;SDS011;1025;42.686;23.350;2022-12-10T10:26:33;7.50;;;4.90;;
2039;SDS011;1025;42.686;23.350;2022-12-10T10:28:59;3.73;;;3.53;;
2039;SDS011;1025;42.686;23.350;2022-12-10T10:31:27;3.67;;;3.47;;
2039;SDS011;1025;42.686;23.350;2022-12-10T10:33:55;4.97;;;3.90;;
2039;SDS011;1025;42.686;23.350;2022-12-10T10:36:23;4.60;;;4.40;;
2039;SDS011;1025;42.686;23.350;2022-12-10T10:38:49;7.20;;;4.87;;
2039;SDS011;1025;42.686;23.350;2022-12-10T10:41:16;5.47;;;4.97;;
2039;SDS011;1025;42.686;23.350;2022-12-10T10:43:44;19.63;;;6.90;;
2039;SDS011;1025;42.686;23.350;2022-12-10T10:46:12;10.60;;;6.63;;
2039;SDS011;1025;42.686;23.350;2022-12-10T10:48:40;5.30;;;4.87;;
2039;SDS011;1025;42.686;23.350;2022-12-10T10:51:08;6.77;;;6.23;;
2039;SDS011;1025;42.686;23.350;2022-12-10T10:53:41;6.87;;;5.80;;
2039;SDS011;1025;42.686;23.350;2022-12-10T10:56:09;7.63;;;6.03;;
2039;SDS011;1025;42.686;23.350;2022-12-10T10:58:37;13.87;;;5.60;;
2039;SDS011;1025;42.686;23.350;2022-12-10T11:01:13;6.77;;;6.10;;
2039;SDS011;1025;42.686;23.350;2022-12-10T11:03:45;4.40;;;4.10;;
2039;SDS011;1025;42.686;23.350;2022-12-10T11:06:12;11.60;;;7.93;;
2039;SDS011;1025;42.686;23.350;2022-12-10T11:08:39;5.83;;;4.90;;
2039;SDS011;1025;42.686;23.350;2022-12-10T11:11:10;7.80;;;6.27;;
2039;SDS011;1025;42.686;23.350;2022-12-10T11:13:38;5.40;;;5.00;;
2039;SDS011;1025;42.686;23.350;2022-12-10T11:16:09;4.60;;;4.30;;
2039;SDS011;1025;42.686;23.350;2022-12-10T11:18:38;6.40;;;4.27;;
2039;SDS011;1025;42.686;23.350;2022-12-10T11:21:07;5.53;;;4.90;;
2039;SDS011;1025;42.686;23.350;2022-12-10T11:23:42;8.40;;;7.07;;
2039;SDS011;1025;42.686;23.350;2022-12-10T11:26:11;12.57;;;4.90;;
2039;SDS011;1025;42.686;23.350;2022-12-10T11:28:44;5.30;;;4.33;;
2039;SDS011;1025;42.686;23.350;2022-12-10T11:31:14;10.20;;;5.73;;
2039;SDS011;1025;42.686;23.350;2022-12-10T11:33:47;6.57;;;5.77;;
2039;SDS011;1025;42.686;23.350;2022-12-10T11:36:19;5.27;;;4.77;;
2039;SDS011;1025;42.686;23.350;2022-12-10T11:38:50;8.13;;;4.93;;
2039;SDS011;1025;42.686;23.350;2022-12-10T11:41:22;7.37;;;4.47;;
2039;SDS011;1025;42.686;23.350;2022-12-10T11:43:55;8.23;;;4.33;;
2039;SDS011;1025;42.686;23.350;2022-12-10T11:46:37;5.03;;;4.73;;
2039;SDS011;1025;42.686;23.350;2022-12-10T11:49:12;4.93;;;4.50;;
2039;SDS011;1025;42.686;23.350;2022-12-10T11:51:44;7.93;;;4.57;;
2039;SDS011;1025;42.686;23.350;2022-12-10T11:54:17;5.13;;;4.63;;
2039;SDS011;1025;42.686;23.350;2022-12-10T11:56:48;4.80;;;4.43;;
2039;SDS011;1025;42.686;23.350;2022-12-10T11:59:16;5.27;;;4.80;;
2039;SDS011;1025;42.686;23.350;2022-12-10T12:01:52;8.03;;;5.20;;
2039;SDS011;1025;42.686;23.350;2022-12-10T12:04:30;5.97;;;5.17;;
2039;SDS011;1025;42.686;23.350;2022-12-10T12:09:41;3.80;;;3.60;;
2039;SDS011;1025;42.686;23.350;2022-12-10T12:12:14;6.63;;;5.87;;
2039;SDS011;1025;42.686;23.350;2022-12-10T12:14:43;6.60;;;5.50;;
2039;SDS011;1025;42.686;23.350;2022-12-10T12:17:11;4.60;;;4.20;;
2039;SDS011;1025;42.686;23.350;2022-12-10T12:19:44;5.23;;;4.73;;
2039;SDS011;1025;42.686;23.350;2022-12-10T12:22:13;13.20;;;5.67;;
2039;SDS011;1025;42.686;23.350;2022-12-10T12:24:41;4.80;;;4.13;;
2039;SDS011;1025;42.686;23.350;2022-12-10T12:27:13;7.13;;;5.70;;
2039;SDS011;1025;42.686;23.350;2022-12-10T12:29:43;5.53;;;3.60;;
2039;SDS011;1025;42.686;23.350;2022-12-10T12:32:11;7.53;;;4.80;;
2039;SDS011;1025;42.686;23.350;2022-12-10T12:34:43;7.87;;;5.73;;
2039;SDS011;1025;42.686;23.350;2022-12-10T12:37:14;4.87;;;4.20;;
2039;SDS011;1025;42.686;23.350;2022-12-10T12:39:43;3.70;;;3.07;;
2039;SDS011;1025;42.686;23.350;2022-12-10T12:42:14;3.40;;;3.10;;
2039;SDS011;1025;42.686;23.350;2022-12-10T12:44:47;6.20;;;3.93;;
2039;SDS011;1025;42.686;23.350;2022-12-10T12:47:19;6.03;;;5.63;;
2039;SDS011;1025;42.686;23.350;2022-12-10T12:49:48;4.80;;;4.07;;
2039;SDS011;1025;42.686;23.350;2022-12-10T12:52:19;3.60;;;3.43;;
2039;SDS011;1025;42.686;23.350;2022-12-10T12:54:52;8.77;;;4.57;;
2039;SDS011;1025;42.686;23.350;2022-12-10T12:57:21;6.63;;;5.13;;
2039;SDS011;1025;42.686;23.350;2022-12-10T12:59:54;19.07;;;4.43;;
2039;SDS011;1025;42.686;23.350;2022-12-10T13:02:26;5.27;;;4.77;;
2039;SDS011;1025;42.686;23.350;2022-12-10T13:04:58;8.80;;;5.43;;
2039;SDS011;1025;42.686;23.350;2022-12-10T13:07:32;5.13;;;4.40;;
2039;SDS011;1025;42.686;23.350;2022-12-10T13:12:50;5.23;;;3.60;;
2039;SDS011;1025;42.686;23.350;2022-12-10T13:15:18;5.93;;;4.63;;
2039;SDS011;1025;42.686;23.350;2022-12-10T13:18:02;5.87;;;5.40;;
2039;SDS011;1025;42.686;23.350;2022-12-10T13:20:30;16.07;;;5.50;;
2039;SDS011;1025;42.686;23.350;2022-12-10T13:22:59;5.57;;;3.77;;
2039;SDS011;1025;42.686;23.350;2022-12-10T13:28:21;4.47;;;4.17;;
2039;SDS011;1025;42.686;23.350;2022-12-10T13:33:29;5.93;;;5.43;;
2039;SDS011;1025;42.686;23.350;2022-12-10T13:36:09;16.40;;;13.77;;
2039;SDS011;1025;42.686;23.350;2022-12-10T13:38:40;5.23;;;4.80;;
2039;SDS011;1025;42.686;23.350;2022-12-10T13:41:07;5.73;;;4.60;;
2039;SDS011;1025;42.686;23.350;2022-12-10T13:43:55;5.37;;;4.90;;
2039;SDS011;1025;42.686;23.350;2022-12-10T13:46:59;8.27;;;4.70;;
2039;SDS011;1025;42.686;23.350;2022-12-10T13:49:26;5.27;;;4.87;;
2039;SDS011;1025;42.686;23.350;2022-12-10T13:52:03;9.00;;;5.30;;
2039;SDS011;1025;42.686;23.350;2022-12-10T13:54:44;10.73;;;6.70;;
2039;SDS011;1025;42.686;23.350;2022-12-10T13:57:24;6.47;;;5.97;;
2039;SDS011;1025;42.686;23.350;2022-12-10T13:59:55;6.10;;;5.50;;
2039;SDS011;1025;42.686;23.350;2022-12-10T14:02:28;5.70;;;5.30;;
2039;SDS011;1025;42.686;23.350;2022-12-10T14:05:04;4.93;;;4.57;;
2039;SDS011;1025;42.686;23.350;2022-12-10T14:07:34;7.63;;;6.90;;
2039;SDS011;1025;42.686;23.350;2022-12-10T14:10:03;8.07;;;7.27;;
2039;SDS011;1025;42.686;23.350;2022-12-10T14:12:33;6.40;;;5.77;;
2039;SDS011;1025;42.686;23.350;2022-12-10T14:15:01;10.27;;;6.23;;
2039;SDS011;1025;42.686;23.350;2022-12-10T14:17:30;4.87;;;4.43;;
2039;SDS011;1025;42.686;23.350;2022-12-10T14:19:57;6.77;;;6.07;;
2039;SDS011;1025;42.686;23.350;2022-12-10T14:22:27;9.70;;;5.80;;
2039;SDS011;1025;42.686;23.350;2022-12-10T14:24:55;9.53;;;6.80;;
2039;SDS011;1025;42.686;23.350;2022-12-10T14:27:26;12.43;;;10.07;;
2039;SDS011;1025;42.686;23.350;2022-12-10T14:30:02;6.60;;;5.27;;
2039;SDS011;1025;42.686;23.350;2022-12-10T14:32:29;9.17;;;5.47;;
2039;SDS011;1025;42.686;23.350;2022-12-10T14:34:57;6.60;;;5.33;;
2039;SDS011;1025;42.686;23.350;2022-12-10T14:37:25;14.20;;;6.37;;
2039;SDS011;1025;42.686;23.350;2022-12-10T14:39:53;11.33;;;7.40;;
2039;SDS011;1025;42.686;23.350;2022-12-10T14:42:20;5.87;;;5.30;;
2039;SDS011;1025;42.686;23.350;2022-12-10T14:44:49;6.60;;;5.53;;
2039;SDS011;1025;42.686;23.350;2022-12-10T14:47:19;5.70;;;5.30;;
2039;SDS011;1025;42.686;23.350;2022-12-10T14:49:46;7.37;;;6.07;;
2039;SDS011;1025;42.686;23.350;2022-12-10T14:52:14;5.83;;;5.43;;
2039;SDS011;1025;42.686;23.350;2022-12-10T14:54:41;5.90;;;5.40;;
2039;SDS011;1025;42.686;23.350;2022-12-10T14:57:08;5.83;;;5.30;;
2039;SDS011;1025;42.686;23.350;2022-12-10T14:59:36;7.07;;;6.50;;
2039;SDS011;1025;42.686;23.350;2022-12-10T15:02:10;9.77;;;7.20;;
2039;SDS011;1025;42.686;23.350;2022-12-10T15:04:39;6.93;;;5.37;;
2039;SDS011;1025;42.686;23.350;2022-12-10T15:07:07;8.67;;;7.70;;
2039;SDS011;1025;42.686;23.350;2022-12-10T15:09:38;6.70;;;5.03;;
2039;SDS011;1025;42.686;23.350;2022-12-10T15:12:05;7.77;;;7.00;;
2039;SDS011;1025;42.686;23.350;2022-12-10T15:14:31;6.80;;;6.40;;
2039;SDS011;1025;42.686;23.350;2022-12-10T15:16:58;9.67;;;8.60;;
2039;SDS011;1025;42.686;23.350;2022-12-10T15:19:30;7.83;;;7.13;;